| time (UTC) | temp C | wind direction | speed KPH | gust KPH | rain 1hr cm | rain 24hr cm | rain mn cm | humidity % | barometer mb |
| 20260510071559 | 23 | 149 | 4.8 | 17.7 | 0.00 | 0.51 | 0.00 | 96 | 1010.4 |
| 20260510071303 | 23 | 168 | 4.8 | 16.1 | 0.00 | 0.51 | 0.00 | 96 | 1010.4 |
| 20260510070504 | 24 | 145 | 3.2 | 11.3 | 0.00 | 0.51 | 0.00 | 97 | 1010.5 |
| 20260510065937 | 24 | 166 | 3.2 | 11.3 | 0.00 | 0.51 | 0.00 | 97 | 1010.5 |
| 20260510065435 | 24 | 164 | 1.6 | 6.4 | 0.00 | 0.51 | 0.00 | 97 | 1010.5 |
| 20260510064932 | 24 | 158 | 3.2 | 11.3 | 0.00 | 0.51 | 0.00 | 97 | 1010.5 |
| 20260510064405 | 24 | 157 | 3.2 | 11.3 | 0.00 | 0.51 | 0.00 | 97 | 1010.5 |
| 20260510063902 | 24 | 156 | 1.6 | 9.7 | 0.00 | 0.51 | 0.00 | 97 | 1010.5 |
| 20260510063335 | 24 | 173 | 1.6 | 11.3 | 0.00 | 0.51 | 0.00 | 97 | 1010.5 |
| 20260510062832 | 24 | 173 | 1.6 | 11.3 | 0.00 | 0.51 | 0.00 | 96 | 1010.5 |
| 20260510062330 | 24 | 108 | 3.2 | 11.3 | 0.00 | 0.51 | 0.00 | 96 | 1010.4 |
| 20260510061826 | 24 | 133 | 4.8 | 16.1 | 0.00 | 0.51 | 0.00 | 96 | 1010.5 |
| 20260510061300 | 24 | 135 | 6.4 | 16.1 | 0.00 | 0.51 | 0.00 | 96 | 1010.5 |
| 20260510060756 | 24 | 156 | 6.4 | 17.7 | 0.00 | 0.51 | 0.00 | 96 | 1010.5 |
| 20260510060231 | 24 | 137 | 6.4 | 17.7 | 0.00 | 0.51 | 0.00 | 95 | 1010.6 |
| 20260510055934 | 24 | 154 | 4.8 | 17.7 | 0.00 | 0.51 | 0.00 | 95 | 1010.5 |
| 20260510055200 | 24 | 140 | 4.8 | 14.5 | 0.00 | 0.51 | 0.00 | 95 | 1010.5 |
| 20260510054907 | 24 | 119 | 6.4 | 14.5 | 0.00 | 0.51 | 0.00 | 95 | 1010.6 |
| 20260510054111 | 24 | 117 | 8.0 | 24.1 | 0.00 | 0.51 | 0.00 | 95 | 1010.7 |
| 20260510053544 | 24 | 133 | 9.7 | 24.1 | 0.00 | 0.51 | 0.00 | 95 | 1010.7 |
| 20260510053041 | 24 | 127 | 8.0 | 20.9 | 0.00 | 0.51 | 0.00 | 95 | 1010.7 |
| 20260510052540 | 24 | 154 | 6.4 | 22.5 | 0.00 | 0.51 | 0.00 | 95 | 1010.8 |
| 20260510052029 | 25 | 122 | 4.8 | 22.5 | 0.00 | 0.51 | 0.00 | 96 | 1010.9 |
| 20260510051800 | 25 | 130 | 4.8 | 14.5 | 0.00 | 0.51 | 0.00 | 96 | 1010.9 |
| 20260510051004 | 25 | 137 | 6.4 | 17.7 | 0.00 | 0.51 | 0.00 | 96 | 1010.9 |
| 20260510050505 | 25 | 123 | 6.4 | 17.7 | 0.00 | 0.51 | 0.00 | 96 | 1010.9 |
| 20260510050443 | 25 | 110 | 4.8 | 17.7 | 0.00 | 0.51 | 0.51 | 96 | 1010.8 |
| 20260510045440 | 25 | 141 | 4.8 | 17.7 | 0.00 | 0.51 | 0.51 | 96 | 1010.9 |
| 20260510044913 | 25 | 128 | 4.8 | 17.7 | 0.00 | 0.51 | 0.51 | 96 | 1010.9 |
| 20260510044409 | 24 | 105 | 4.8 | 12.9 | 0.00 | 0.51 | 0.51 | 95 | 1011.0 |
| 20260510043845 | 24 | 134 | 4.8 | 14.5 | 0.00 | 0.51 | 0.51 | 95 | 1011.1 |
| 20260510043317 | 24 | 93 | 4.8 | 16.1 | 0.00 | 0.51 | 0.51 | 95 | 1011.1 |
| 20260510042815 | 24 | 87 | 4.8 | 16.1 | 0.00 | 0.51 | 0.51 | 95 | 1011.1 |
| 20260510042311 | 24 | 89 | 4.8 | 14.5 | 0.00 | 0.51 | 0.51 | 95 | 1011.2 |
| 20260510041808 | 24 | 119 | 3.2 | 14.5 | 0.00 | 0.51 | 0.51 | 95 | 1011.4 |
| 20260510041241 | 24 | 70 | 3.2 | 14.5 | 0.00 | 0.51 | 0.51 | 95 | 1011.4 |
| 20260510040738 | 24 | 104 | 4.8 | 14.5 | 0.00 | 0.51 | 0.51 | 95 | 1011.3 |
| 20260510040226 | 24 | 88 | 6.4 | 14.5 | 0.00 | 0.51 | 0.51 | 95 | 1011.2 |
| 20260510035729 | 24 | 117 | 6.4 | 14.5 | 0.00 | 0.51 | 0.51 | 95 | 1011.1 |
| 20260510035201 | 24 | 135 | 6.4 | 14.5 | 0.00 | 0.51 | 0.51 | 95 | 1010.9 |
| 20260510034658 | 24 | 139 | 4.8 | 12.9 | 0.00 | 0.51 | 0.51 | 96 | 1011.0 |
| 20260510034131 | 24 | 125 | 3.2 | 9.7 | 0.00 | 0.51 | 0.51 | 96 | 1011.0 |
| 20260510033631 | 24 | 93 | 3.2 | 11.3 | 0.00 | 0.51 | 0.51 | 96 | 1011.1 |
| 20260510033107 | 25 | 88 | 8.0 | 19.3 | 0.00 | 0.51 | 0.51 | 96 | 1011.3 |
| 20260510033102 | 24 | 91 | 8.0 | 19.3 | 0.00 | 0.51 | 0.51 | 96 | 1011.3 |
| 20260510032031 | 25 | 88 | 4.8 | 16.1 | 0.00 | 0.51 | 0.51 | 96 | 1011.2 |
| 20260510031511 | 25 | 82 | 6.4 | 16.1 | 0.00 | 0.51 | 0.51 | 96 | 1011.2 |
| 20260510031443 | 25 | 88 | 6.4 | 19.3 | 0.00 | 0.51 | 0.51 | 96 | 1011.2 |
| 20260510030435 | 25 | 94 | 9.7 | 22.5 | 0.00 | 0.51 | 0.51 | 96 | 1011.2 |
| 20260510025910 | 25 | 75 | 11.3 | 27.4 | 0.00 | 0.51 | 0.51 | 96 | 1011.2 |
| 20260510025405 | 25 | 117 | 12.9 | 27.4 | 0.00 | 0.51 | 0.51 | 97 | 1011.1 |
| 20260510024902 | 25 | 67 | 12.9 | 27.4 | 0.00 | 0.51 | 0.51 | 97 | 1011.0 |
| 20260510024610 | 25 | 40 | 11.3 | 27.4 | 0.00 | 0.51 | 0.51 | 97 | 1010.9 |
| 20260510024116 | 23 | 125 | 3.2 | 9.7 | 0.00 | 0.51 | 0.51 | 97 | 1010.1 |
| 20260510024111 | 23 | 85 | 3.2 | 8.0 | 0.00 | 0.51 | 0.51 | 96 | 1010.2 |
| 20260510024107 | 23 | 133 | 3.2 | 12.9 | 0.00 | 0.51 | 0.51 | 97 | 1010.1 |
| 20260510024049 | 24 | 108 | 8.0 | 22.5 | 0.00 | 0.51 | 0.51 | 97 | 1010.7 |
| 20260510024007 | 23 | 84 | 4.8 | 14.5 | 0.00 | 0.51 | 0.51 | 96 | 1010.5 |
| 20260510022017 | 23 | 125 | 3.2 | 9.7 | 0.00 | 0.51 | 0.51 | 97 | 1010.1 |
| 20260510021221 | 23 | 128 | 4.8 | 14.5 | 0.00 | 0.51 | 0.51 | 98 | 1010.0 |
| 20260510020721 | 23 | 124 | 3.2 | 14.5 | 0.00 | 0.51 | 0.51 | 98 | 1009.8 |
| 20260510020154 | 23 | 137 | 1.6 | 6.4 | 0.00 | 0.51 | 0.51 | 99 | 1009.7 |
| 20260510015641 | 23 | 140 | 1.6 | 6.4 | 0.00 | 0.51 | 0.51 | 99 | 1009.4 |
| 20260510015140 | 23 | 140 | 0.0 | 1.6 | 0.00 | 0.51 | 0.51 | 99 | 1009.3 |
| 20260510014638 | 23 | 141 | 1.6 | 4.8 | 0.00 | 0.51 | 0.51 | 99 | 1009.2 |
| 20260510014138 | 23 | 140 | 1.6 | 4.8 | 0.00 | 0.51 | 0.51 | 99 | 1009.0 |
| 20260510013614 | 23 | 176 | 0.0 | 3.2 | 0.00 | 0.51 | 0.51 | 99 | 1008.8 |
| 20260510013103 | 23 | 209 | 0.0 | 3.2 | 0.03 | 0.51 | 0.51 | 99 | 1008.8 |
| 20260510012614 | 23 | 209 | 0.0 | 1.6 | 0.05 | 0.51 | 0.51 | 98 | 1008.6 |
| 20260510012035 | 23 | 209 | 1.6 | 3.2 | 0.20 | 0.51 | 0.51 | 98 | 1008.6 |
| 20260510011535 | 23 | 209 | 1.6 | 3.2 | 0.25 | 0.51 | 0.51 | 98 | 1008.2 |
| 20260510011020 | 23 | 209 | 1.6 | 8.0 | 0.36 | 0.51 | 0.51 | 98 | 1008.3 |
| 20260510010751 | 23 | 209 | 3.2 | 8.0 | 0.38 | 0.51 | 0.51 | 97 | 1008.3 |
| 20260510010236 | 23 | 220 | 1.6 | 8.0 | 0.41 | 0.51 | 0.51 | 97 | 1008.1 |
| 20260510005444 | 23 | 57 | 1.6 | 6.4 | 0.48 | 0.51 | 0.51 | 97 | 1008.0 |
| 20260510004943 | 23 | 57 | 3.2 | 8.0 | 0.48 | 0.51 | 0.51 | 96 | 1007.7 |
| 20260510004714 | 23 | 56 | 4.8 | 9.7 | 0.48 | 0.51 | 0.51 | 95 | 1007.6 |
| 20260510003925 | 23 | 57 | 6.4 | 12.9 | 0.48 | 0.51 | 0.51 | 94 | 1007.6 |
| 20260510003400 | 23 | 67 | 8.0 | 16.1 | 0.46 | 0.48 | 0.48 | 94 | 1007.9 |
| 20260510002859 | 23 | 66 | 8.0 | 16.1 | 0.43 | 0.46 | 0.48 | 93 | 1007.9 |
| 20260510002333 | 24 | 64 | 8.0 | 19.3 | 0.38 | 0.38 | 0.41 | 93 | 1008.1 |
| 20260510001811 | 24 | 14 | 6.4 | 19.3 | 0.28 | 0.28 | 0.28 | 91 | 1008.1 |
| 20260510001250 | 25 | 41 | 3.2 | 12.9 | 0.15 | 0.15 | 0.15 | 91 | 1007.8 |
| 20260510000723 | 25 | 84 | 3.2 | 12.9 | 0.13 | 0.13 | 0.13 | 89 | 1007.6 |
| 20260510000221 | 26 | 84 | 6.4 | 17.7 | 0.10 | 0.10 | 0.10 | 87 | 1007.7 |
| 20260509235717 | 26 | 60 | 8.0 | 17.7 | 0.05 | 0.05 | 0.08 | 85 | 1007.8 |
| 20260509235151 | 26 | 70 | 6.4 | 11.3 | 0.03 | 0.03 | 0.03 | 84 | 1007.7 |
| 20260509234625 | 26 | 49 | 4.8 | 11.3 | 0.03 | 0.03 | 0.03 | 82 | 1007.8 |
| 20260509234601 | 26 | 97 | 4.8 | 11.3 | 0.03 | 0.03 | 0.03 | 77 | 1007.5 |
| 20260509233531 | 26 | 105 | 11.3 | 30.6 | 0.03 | 0.03 | 0.03 | 73 | 1007.3 |
| 20260509233004 | 27 | 189 | 14.5 | 30.6 | 0.03 | 0.03 | 0.03 | 66 | 1007.7 |
| 20260509232733 | 30 | 226 | 9.7 | 25.7 | 0.00 | 0.00 | 0.00 | 70 | 1007.8 |
| 20260509231933 | 32 | 158 | 4.8 | 16.1 | 0.00 | 0.00 | 0.00 | 65 | 1007.5 |
| 20260509230903 | 33 | 98 | 3.2 | 11.3 | 0.00 | 0.00 | 0.00 | 62 | 1007.3 |
| 20260509230632 | 33 | 81 | 3.2 | 9.7 | 0.00 | 0.00 | 0.00 | 62 | 1007.3 |
| 20260509225833 | 33 | 86 | 1.6 | 9.7 | 0.00 | 0.00 | 0.00 | 61 | 1007.1 |
| 20260509225308 | 33 | 114 | 3.2 | 9.7 | 0.00 | 0.00 | 0.00 | 59 | 1007.1 |
| 20260509225013 | 34 | 114 | 3.2 | 9.7 | 0.00 | 0.00 | 0.00 | 58 | 1007.1 |
| 20260509224237 | 35 | 141 | 1.6 | 9.7 | 0.00 | 0.00 | 0.00 | 57 | 1007.0 |
| 20260509223734 | 35 | 139 | 1.6 | 8.0 | 0.00 | 0.00 | 0.00 | 57 | 1007.1 |
| 20260509223503 | 35 | 63 | 3.2 | 11.3 | 0.00 | 0.00 | 0.00 | 57 | 1007.0 |
| 20260509222716 | 35 | 115 | 1.6 | 9.7 | 0.00 | 0.00 | 0.00 | 57 | 1007.0 |
| 20260509222705 | 35 | 70 | 3.2 | 11.3 | 0.00 | 0.00 | 0.00 | 56 | 1007.0 |
| 20260509221657 | 35 | 125 | 1.6 | 8.0 | 0.00 | 0.00 | 0.00 | 56 | 1006.9 |
| 20260509221154 | 35 | 29 | 1.6 | 8.0 | 0.00 | 0.00 | 0.00 | 57 | 1006.9 |
| 20260509220650 | 35 | 28 | 3.2 | 8.0 | 0.00 | 0.00 | 0.00 | 58 | 1006.9 |
| 20260509215646 | 34 | 287 | 3.2 | 11.3 | 0.00 | 0.00 | 0.00 | 58 | 1006.8 |
| 20260509215141 | 34 | 286 | 4.8 | 16.1 | 0.00 | 0.00 | 0.00 | 58 | 1006.9 |
| 20260509214614 | 34 | 20 | 3.2 | 16.1 | 0.00 | 0.00 | 0.00 | 60 | 1007.0 |
| 20260509214112 | 33 | 316 | 3.2 | 11.3 | 0.00 | 0.00 | 0.00 | 62 | 1006.9 |
| 20260509213551 | 33 | 239 | 4.8 | 11.3 | 0.00 | 0.00 | 0.00 | 61 | 1006.9 |
| 20260509213018 | 34 | 238 | 4.8 | 11.3 | 0.00 | 0.00 | 0.00 | 59 | 1007.0 |
| 20260509212515 | 35 | 297 | 3.2 | 11.3 | 0.00 | 0.00 | 0.00 | 59 | 1006.9 |
| 20260509211948 | 34 | 4 | 3.2 | 11.3 | 0.00 | 0.00 | 0.00 | 61 | 1006.9 |
| 20260509211446 | 35 | 298 | 3.2 | 11.3 | 0.00 | 0.00 | 0.00 | 59 | 1007.0 |
| 20260509210918 | 35 | 314 | 3.2 | 8.0 | 0.00 | 0.00 | 0.00 | 58 | 1007.1 |
| 20260509210417 | 35 | 308 | 3.2 | 8.0 | 0.00 | 0.00 | 0.00 | 58 | 1007.1 |
| 20260509205848 | 35 | 347 | 1.6 | 8.0 | 0.00 | 0.00 | 0.00 | 60 | 1007.2 |
| 20260509205346 | 35 | 359 | 3.2 | 14.5 | 0.00 | 0.00 | 0.00 | 59 | 1007.4 |
| 20260509204844 | 35 | 9 | 4.8 | 14.5 | 0.00 | 0.00 | 0.00 | 59 | 1007.4 |
| 20260509204542 | 35 | 338 | 3.2 | 12.9 | 0.00 | 0.00 | 0.00 | 59 | 1007.4 |
| 20260509203748 | 35 | 28 | 3.2 | 8.0 | 0.00 | 0.00 | 0.00 | 60 | 1007.4 |
| 20260509203225 | 35 | 335 | 3.2 | 14.5 | 0.00 | 0.00 | 0.00 | 59 | 1007.5 |
| 20260509202656 | 35 | 10 | 3.2 | 11.3 | 0.00 | 0.00 | 0.00 | 59 | 1007.6 |
| 20260509202425 | 34 | 21 | 4.8 | 8.0 | 0.00 | 0.00 | 0.00 | 59 | 1007.6 |
| 20260509201627 | 34 | 332 | 3.2 | 9.7 | 0.00 | 0.00 | 0.00 | 61 | 1007.6 |
| 20260509201335 | 33 | 9 | 3.2 | 9.7 | 0.00 | 0.00 | 0.00 | 62 | 1007.6 |
| 20260509200539 | 33 | 336 | 3.2 | 14.5 | 0.00 | 0.00 | 0.00 | 63 | 1007.7 |
| 20260509200011 | 33 | 293 | 4.8 | 14.5 | 0.00 | 0.00 | 0.00 | 61 | 1007.8 |
| 20260509195510 | 33 | 285 | 4.8 | 16.1 | 0.00 | 0.00 | 0.00 | 62 | 1007.9 |
| 20260509195240 | 33 | 318 | 4.8 | 16.1 | 0.00 | 0.00 | 0.00 | 63 | 1007.9 |
| 20260509194449 | 33 | 325 | 4.8 | 14.5 | 0.00 | 0.00 | 0.00 | 64 | 1008.0 |
| 20260509193949 | 33 | 14 | 3.2 | 12.9 | 0.00 | 0.00 | 0.00 | 64 | 1008.0 |
| 20260509193700 | 33 | 335 | 1.6 | 9.7 | 0.00 | 0.00 | 0.00 | 67 | 1008.1 |
| 20260509192931 | 32 | 192 | 0.0 | 11.3 | 0.00 | 0.00 | 0.00 | 67 | 1008.0 |
| 20260509192425 | 31 | 199 | 3.2 | 11.3 | 0.00 | 0.00 | 0.00 | 67 | 1008.2 |
| 20260509191925 | 32 | 246 | 4.8 | 11.3 | 0.00 | 0.00 | 0.00 | 67 | 1008.2 |
| 20260509191408 | 32 | 322 | 3.2 | 11.3 | 0.00 | 0.00 | 0.00 | 69 | 1008.3 |
| 20260509190910 | 31 | 288 | 1.6 | 4.8 | 0.00 | 0.00 | 0.00 | 68 | 1008.3 |
| 20260509190353 | 31 | 320 | 3.2 | 11.3 | 0.00 | 0.00 | 0.00 | 68 | 1008.3 |
| 20260509185858 | 31 | 304 | 3.2 | 11.3 | 0.00 | 0.00 | 0.00 | 69 | 1008.3 |
| 20260509185335 | 31 | 228 | 4.8 | 12.9 | 0.00 | 0.00 | 0.00 | 70 | 1008.3 |
| 20260509184810 | 31 | 123 | 6.4 | 12.9 | 0.00 | 0.00 | 0.00 | 70 | 1008.3 |
| 20260509184255 | 31 | 153 | 3.2 | 11.3 | 0.00 | 0.00 | 0.00 | 70 | 1008.5 |
| 20260509183728 | 30 | 228 | 4.8 | 14.5 | 0.00 | 0.00 | 0.00 | 74 | 1008.6 |
| 20260509183207 | 30 | 192 | 6.4 | 14.5 | 0.00 | 0.00 | 0.00 | 74 | 1008.7 |
| 20260509182642 | 30 | 249 | 4.8 | 16.1 | 0.00 | 0.00 | 0.00 | 75 | 1008.7 |
| 20260509182142 | 30 | 223 | 4.8 | 16.1 | 0.00 | 0.00 | 0.00 | 75 | 1008.8 |
| 20260509181640 | 30 | 154 | 4.8 | 12.9 | 0.00 | 0.00 | 0.00 | 77 | 1009.0 |
| 20260509181345 | 30 | 171 | 4.8 | 14.5 | 0.00 | 0.00 | 0.00 | 77 | 1009.1 |
| 20260509180549 | 29 | 168 | 6.4 | 14.5 | 0.00 | 0.00 | 0.00 | 77 | 1009.3 |
| 20260509180034 | 29 | 212 | 6.4 | 14.5 | 0.00 | 0.00 | 0.00 | 78 | 1009.5 |
| 20260509175806 | 29 | 242 | 6.4 | 12.9 | 0.00 | 0.00 | 0.00 | 80 | 1009.5 |
| 20260509175009 | 29 | 249 | 6.4 | 16.1 | 0.00 | 0.00 | 0.00 | 80 | 1009.5 |
| 20260509174505 | 29 | 270 | 6.4 | 16.1 | 0.00 | 0.03 | 0.00 | 80 | 1009.5 |
| 20260509174211 | 28 | 97 | 8.0 | 16.1 | 0.00 | 0.03 | 0.00 | 81 | 1009.5 |
| 20260509173646 | 28 | 206 | 8.0 | 19.3 | 0.00 | 0.03 | 0.00 | 82 | 1009.5 |
| 20260509172857 | 28 | 193 | 6.4 | 19.3 | 0.00 | 0.03 | 0.00 | 83 | 1009.6 |
| 20260509172617 | 28 | 248 | 4.8 | 16.1 | 0.00 | 0.03 | 0.00 | 84 | 1009.7 |
| 20260509171843 | 28 | 222 | 4.8 | 11.3 | 0.00 | 0.03 | 0.00 | 85 | 1009.8 |
| 20260509171317 | 28 | 199 | 4.8 | 11.3 | 0.00 | 0.03 | 0.00 | 86 | 1010.0 |
| 20260509170749 | 27 | 195 | 3.2 | 9.7 | 0.00 | 0.05 | 0.00 | 86 | 1010.0 |
| 20260509170247 | 27 | 197 | 3.2 | 9.7 | 0.00 | 0.05 | 0.00 | 87 | 1010.0 |
| 20260509170221 | 27 | 193 | 4.8 | 11.3 | 0.00 | 0.05 | 0.00 | 87 | 1010.1 |
| 20260509165216 | 27 | 197 | 4.8 | 11.3 | 0.00 | 0.05 | 0.00 | 86 | 1010.1 |
| 20260509164648 | 27 | 187 | 3.2 | 8.0 | 0.00 | 0.05 | 0.00 | 86 | 1010.0 |
| 20260509164145 | 27 | 196 | 3.2 | 8.0 | 0.00 | 0.05 | 0.00 | 86 | 1010.0 |
| 20260509163643 | 27 | 195 | 1.6 | 11.3 | 0.00 | 0.08 | 0.00 | 86 | 1010.0 |
| 20260509163413 | 27 | 270 | 0.0 | 4.8 | 0.00 | 0.08 | 0.00 | 87 | 1010.0 |
| 20260509162617 | 27 | 297 | 1.6 | 4.8 | 0.00 | 0.08 | 0.00 | 86 | 1010.0 |
| 20260509162611 | 27 | 297 | 1.6 | 6.4 | 0.00 | 0.08 | 0.00 | 86 | 1009.9 |
| 20260509161606 | 27 | 260 | 1.6 | 6.4 | 0.00 | 0.08 | 0.00 | 86 | 1010.1 |
| 20260509161107 | 27 | 310 | 1.6 | 6.4 | 0.00 | 0.08 | 0.00 | 86 | 1010.1 |
| 20260509160600 | 27 | 317 | 3.2 | 8.0 | 0.00 | 0.08 | 0.00 | 86 | 1010.0 |
| 20260509160034 | 27 | 316 | 1.6 | 8.0 | 0.00 | 0.08 | 0.00 | 87 | 1010.0 |
| 20260509155531 | 27 | 259 | 1.6 | 6.4 | 0.00 | 0.08 | 0.00 | 87 | 1009.9 |
| 20260509155003 | 27 | 239 | 0.0 | 6.4 | 0.00 | 0.08 | 0.00 | 87 | 1009.9 |
| 20260509154500 | 27 | 138 | 0.0 | 0.0 | 0.00 | 0.08 | 0.00 | 88 | 1009.9 |
| 20260509153936 | 27 | 137 | 0.0 | 0.0 | 0.00 | 0.08 | 0.00 | 89 | 1009.9 |
| 20260509153431 | 27 | 137 | 0.0 | 0.0 | 0.00 | 0.08 | 0.00 | 91 | 1009.8 |
| 20260509152903 | 26 | 137 | 0.0 | 0.0 | 0.00 | 0.08 | 0.00 | 92 | 1009.8 |
| 20260509152401 | 26 | 137 | 0.0 | 0.0 | 0.00 | 0.08 | 0.00 | 93 | 1010.0 |
| 20260509151833 | 26 | 137 | 0.0 | 0.0 | 0.00 | 0.08 | 0.00 | 93 | 1010.0 |
| 20260509151602 | 26 | 137 | 0.0 | 0.0 | 0.00 | 0.10 | 0.00 | 94 | 1010.0 |
| 20260509150806 | 26 | 137 | 0.0 | 0.0 | 0.00 | 0.10 | 0.00 | 94 | 1010.0 |
| 20260509150304 | 25 | 137 | 0.0 | 0.0 | 0.00 | 0.10 | 0.00 | 95 | 1009.9 |
| 20260509145735 | 25 | 137 | 0.0 | 0.0 | 0.00 | 0.10 | 0.00 | 96 | 1009.7 |
| 20260509145205 | 25 | 137 | 0.0 | 0.0 | 0.00 | 0.10 | 0.00 | 97 | 1009.7 |
| 20260509144703 | 25 | 138 | 0.0 | 0.0 | 0.00 | 0.10 | 0.00 | 97 | 1009.8 |
| 20260509144208 | 25 | 138 | 0.0 | 0.0 | 0.00 | 0.10 | 0.00 | 97 | 1009.7 |
| 20260509143646 | 25 | 137 | 0.0 | 3.2 | 0.00 | 0.10 | 0.00 | 97 | 1009.6 |
| 20260509143145 | 25 | 137 | 0.0 | 3.2 | 0.00 | 0.10 | 0.00 | 98 | 1009.5 |
| 20260509142617 | 25 | 137 | 0.0 | 3.2 | 0.00 | 0.10 | 0.00 | 98 | 1009.6 |
| 20260509142114 | 25 | 138 | 1.6 | 6.4 | 0.00 | 0.10 | 0.00 | 98 | 1009.5 |
| 20260509141819 | 25 | 137 | 1.6 | 9.7 | 0.00 | 0.10 | 0.00 | 99 | 1009.1 |
| 20260509141318 | 25 | 145 | 3.2 | 9.7 | 0.00 | 0.10 | 0.00 | 99 | 1008.9 |
| 20260509140818 | 25 | 190 | 3.2 | 8.0 | 0.00 | 0.10 | 0.00 | 99 | 1009.1 |
| 20260509140043 | 24 | 187 | 1.6 | 6.4 | 0.00 | 0.10 | 0.00 | 100 | 1009.1 |
| 20260509140019 | 24 | 185 | 1.6 | 4.8 | 0.00 | 0.10 | 0.00 | 100 | 1009.2 |
| 20260509135016 | 24 | 187 | 3.2 | 6.4 | 0.00 | 0.10 | 0.00 | 100 | 1009.3 |
| 20260509134737 | 24 | 192 | 3.2 | 8.0 | 0.00 | 0.10 | 0.00 | 100 | 1009.4 |
| 20260509134006 | 24 | 186 | 3.2 | 8.0 | 0.00 | 0.10 | 0.00 | 100 | 1009.7 |
| 20260509133437 | 24 | 217 | 1.6 | 6.4 | 0.00 | 0.10 | 0.00 | 100 | 1009.7 |
| 20260509132917 | 24 | 217 | 1.6 | 4.8 | 0.00 | 0.10 | 0.00 | 100 | 1010.1 |
| 20260509132421 | 24 | 218 | 3.2 | 6.4 | 0.00 | 0.10 | 0.00 | 100 | 1010.3 |
| 20260509131853 | 24 | 218 | 1.6 | 6.4 | 0.00 | 0.10 | 0.00 | 100 | 1010.3 |
| 20260509131349 | 24 | 216 | 1.6 | 4.8 | 0.00 | 0.10 | 0.00 | 100 | 1010.1 |
| 20260509130831 | 24 | 216 | 0.0 | 3.2 | 0.00 | 0.10 | 0.00 | 100 | 1010.1 |
| 20260509130543 | 24 | 216 | 1.6 | 6.4 | 0.00 | 0.10 | 0.00 | 100 | 1010.1 |
| 20260509130425 | 23 | 216 | 1.6 | 6.4 | 0.00 | 0.10 | 0.00 | 100 | 1010.1 |
| 20260509125251 | 23 | 215 | 1.6 | 6.4 | 0.00 | 0.10 | 0.00 | 100 | 1010.0 |
| 20260509125021 | 23 | 113 | 0.0 | 6.4 | 0.00 | 0.10 | 0.00 | 100 | 1009.9 |
| 20260509124528 | 23 | 110 | 0.0 | 3.2 | 0.00 | 0.10 | 0.00 | 100 | 1009.7 |
| 20260509123719 | 23 | 109 | 0.0 | 1.6 | 0.00 | 0.10 | 0.00 | 100 | 1009.8 |
| 20260509123156 | 23 | 109 | 0.0 | 1.6 | 0.00 | 0.10 | 0.00 | 100 | 1009.8 |
| 20260509122655 | 23 | 109 | 0.0 | 1.6 | 0.00 | 0.10 | 0.00 | 100 | 1009.7 |
| 20260509122402 | 23 | 109 | 0.0 | 1.6 | 0.00 | 0.10 | 0.00 | 100 | 1009.8 |
| 20260509121604 | 23 | 109 | 0.0 | 0.0 | 0.00 | 0.10 | 0.00 | 100 | 1009.7 |
| 20260509121107 | 23 | 109 | 0.0 | 0.0 | 0.00 | 0.10 | 0.00 | 100 | 1009.7 |
| 20260509120556 | 23 | 109 | 0.0 | 1.6 | 0.00 | 0.10 | 0.00 | 100 | 1009.5 |
| 20260509120031 | 23 | 109 | 1.6 | 3.2 | 0.00 | 0.10 | 0.00 | 100 | 1009.4 |
| 20260509115505 | 23 | 109 | 1.6 | 3.2 | 0.00 | 0.10 | 0.00 | 100 | 1009.5 |
| 20260509115002 | 23 | 109 | 0.0 | 3.2 | 0.00 | 0.10 | 0.00 | 100 | 1009.4 |
| 20260509114459 | 23 | 109 | 1.6 | 4.8 | 0.00 | 0.10 | 0.00 | 100 | 1009.4 |
| 20260509113934 | 23 | 109 | 1.6 | 4.8 | 0.00 | 0.10 | 0.00 | 100 | 1009.6 |
| 20260509113407 | 23 | 109 | 0.0 | 4.8 | 0.00 | 0.10 | 0.00 | 100 | 1010.0 |
| 20260509112841 | 23 | 109 | 0.0 | 4.8 | 0.00 | 0.10 | 0.00 | 100 | 1010.0 |
| 20260509112315 | 23 | 112 | 0.0 | 3.2 | 0.00 | 0.10 | 0.00 | 100 | 1009.8 |
| 20260509111748 | 23 | 112 | 0.0 | 3.2 | 0.00 | 0.10 | 0.00 | 100 | 1009.7 |
| 20260509111245 | 23 | 112 | 0.0 | 4.8 | 0.00 | 0.10 | 0.00 | 100 | 1009.6 |
| 20260509110744 | 23 | 112 | 1.6 | 4.8 | 0.00 | 0.10 | 0.00 | 100 | 1009.6 |
| 20260509110239 | 23 | 112 | 1.6 | 4.8 | 0.00 | 0.10 | 0.00 | 100 | 1009.5 |
| 20260509105712 | 23 | 112 | 0.0 | 4.8 | 0.00 | 0.10 | 0.00 | 100 | 1009.4 |
| 20260509105209 | 23 | 142 | 0.0 | 0.0 | 0.00 | 0.10 | 0.00 | 100 | 1009.3 |
| 20260509104643 | 23 | 141 | 0.0 | 0.0 | 0.00 | 0.10 | 0.00 | 100 | 1009.1 |
| 20260509104138 | 23 | 142 | 0.0 | 0.0 | 0.00 | 0.10 | 0.00 | 100 | 1008.9 |
| 20260509103906 | 23 | 142 | 0.0 | 0.0 | 0.00 | 0.10 | 0.00 | 100 | 1009.0 |
| 20260509103340 | 23 | 142 | 0.0 | 0.0 | 0.00 | 0.10 | 0.00 | 100 | 1009.1 |
| 20260509102837 | 23 | 142 | 0.0 | 0.0 | 0.00 | 0.10 | 0.00 | 100 | 1009.0 |
| 20260509102039 | 23 | 141 | 0.0 | 0.0 | 0.00 | 0.10 | 0.00 | 100 | 1008.9 |
| 20260509101744 | 23 | 142 | 0.0 | 0.0 | 0.00 | 0.10 | 0.00 | 100 | 1009.0 |
| 20260509101009 | 23 | 142 | 0.0 | 0.0 | 0.00 | 0.10 | 0.00 | 100 | 1008.9 |
| 20260509100506 | 23 | 142 | 0.0 | 0.0 | 0.00 | 0.10 | 0.00 | 100 | 1008.9 |
| 20260509100005 | 23 | 142 | 0.0 | 0.0 | 0.00 | 0.10 | 0.00 | 100 | 1008.9 |
| 20260509095437 | 23 | 142 | 0.0 | 0.0 | 0.00 | 0.10 | 0.00 | 100 | 1008.8 |
| 20260509094935 | 23 | 142 | 0.0 | 0.0 | 0.00 | 0.10 | 0.00 | 100 | 1009.0 |
| 20260509094407 | 23 | 142 | 0.0 | 0.0 | 0.00 | 0.10 | 0.00 | 100 | 1008.8 |
| 20260509093841 | 23 | 142 | 0.0 | 0.0 | 0.00 | 0.10 | 0.00 | 100 | 1008.8 |
| 20260509093337 | 23 | 141 | 1.6 | 3.2 | 0.00 | 0.10 | 0.00 | 100 | 1009.0 |
| 20260509092853 | 23 | 142 | 1.6 | 3.2 | 0.00 | 0.10 | 0.00 | 100 | 1008.9 |
| 20260509091742 | 23 | 145 | 0.0 | 3.2 | 0.00 | 0.10 | 0.00 | 100 | 1009.0 |
| 20260509091237 | 23 | 145 | 0.0 | 3.2 | 0.00 | 0.10 | 0.00 | 100 | 1009.1 |
| 20260509090710 | 23 | 145 | 0.0 | 1.6 | 0.00 | 0.10 | 0.00 | 100 | 1009.1 |
| 20260509090206 | 23 | 145 | 0.0 | 1.6 | 0.00 | 0.10 | 0.00 | 100 | 1009.0 |
| 20260509085702 | 23 | 145 | 0.0 | 0.0 | 0.00 | 0.10 | 0.00 | 100 | 1009.1 |
| 20260509085159 | 23 | 145 | 0.0 | 1.6 | 0.00 | 0.10 | 0.00 | 100 | 1008.9 |
| 20260509084633 | 23 | 145 | 0.0 | 1.6 | 0.00 | 0.10 | 0.00 | 100 | 1008.9 |
| 20260509084106 | 23 | 145 | 0.0 | 6.4 | 0.00 | 0.10 | 0.00 | 100 | 1008.9 |
| 20260509083606 | 23 | 145 | 1.6 | 6.4 | 0.00 | 0.10 | 0.00 | 100 | 1008.7 |
| 20260509083038 | 23 | 145 | 3.2 | 9.7 | 0.00 | 0.10 | 0.00 | 100 | 1008.7 |
| 20260509082510 | 24 | 130 | 3.2 | 9.7 | 0.00 | 0.10 | 0.00 | 100 | 1008.7 |
| 20260509082007 | 24 | 135 | 1.6 | 8.0 | 0.00 | 0.10 | 0.00 | 100 | 1009.0 |
| 20260509081442 | 24 | 127 | 0.0 | 6.4 | 0.00 | 0.10 | 0.00 | 100 | 1009.1 |
| 20260509080917 | 24 | 127 | 3.2 | 11.3 | 0.00 | 0.10 | 0.00 | 99 | 1008.9 |
| 20260509080647 | 24 | 127 | 3.2 | 11.3 | 0.00 | 0.10 | 0.00 | 99 | 1008.8 |
| 20260509075855 | 24 | 133 | 1.6 | 4.8 | 0.00 | 0.10 | 0.00 | 99 | 1008.9 |
| 20260509075356 | 24 | 131 | 0.0 | 4.8 | 0.00 | 0.10 | 0.00 | 99 | 1009.0 |
| 20260509074855 | 24 | 131 | 1.6 | 4.8 | 0.00 | 0.10 | 0.00 | 99 | 1009.0 |
| 20260509074352 | 24 | 131 | 1.6 | 6.4 | 0.00 | 0.10 | 0.00 | 99 | 1008.9 |
| 20260509073852 | 24 | 131 | 0.0 | 6.4 | 0.00 | 0.10 | 0.00 | 99 | 1009.1 |
| 20260509073353 | 24 | 131 | 1.6 | 8.0 | 0.00 | 0.10 | 0.00 | 100 | 1009.3 |
| 20260509073100 | 24 | 131 | 1.6 | 8.0 | 0.00 | 0.10 | 0.00 | 100 | 1009.3 |
| 20260509072308 | 24 | 174 | 1.6 | 4.8 | 0.00 | 0.10 | 0.00 | 100 | 1009.4 |